createdAt,value
2022-08-17T00:00:44.030Z,101314.69
2022-08-17T00:03:36.047Z,101312.97
2022-08-17T00:06:25.167Z,101315.53
2022-08-17T00:09:10.505Z,101318.16
2022-08-17T00:12:44.421Z,101312.06
2022-08-17T00:15:13.500Z,101314.69
2022-08-17T00:17:59.571Z,101313.81
2022-08-17T00:20:45.085Z,101310.31
2022-08-17T00:23:30.788Z,101310.31
2022-08-17T00:26:43.578Z,101315.53
2022-08-17T00:29:24.419Z,101308.56
2022-08-17T00:33:14.779Z,101306.81
2022-08-17T00:35:19.739Z,101304.19
2022-08-17T00:38:09.690Z,101305.06
2022-08-17T00:41:08.382Z,101295.47
2022-08-17T00:44:00.312Z,101299.81
2022-08-17T00:46:48.005Z,101310.25
2022-08-17T00:49:33.386Z,101300.63
2022-08-17T00:52:23.207Z,101300.63
2022-08-17T00:55:10.065Z,101293.63
2022-08-17T00:57:58.806Z,101297.09
2022-08-17T01:00:47.094Z,101297.94
2022-08-17T01:03:33.630Z,101302.31
2022-08-17T01:06:21.072Z,101303.16
2022-08-17T01:09:09.005Z,101304.06
2022-08-17T01:11:54.557Z,101294.47
2022-08-17T01:14:40.648Z,101295.34
2022-08-17T01:17:29.104Z,101299.72
2022-08-17T01:20:14.779Z,101293.66
2022-08-17T01:23:01.835Z,101294.50
2022-08-17T01:25:51.250Z,101297.97
2022-08-17T01:28:54.029Z,101304.94
2022-08-17T01:31:46.063Z,101304.09
2022-08-17T01:34:35.249Z,101306.72
2022-08-17T01:37:37.047Z,101305.88
2022-08-17T01:40:49.595Z,101318.06
2022-08-17T01:43:52.229Z,101322.41
2022-08-17T01:46:38.371Z,101313.72
2022-08-17T01:49:24.004Z,101318.94
2022-08-17T01:52:11.396Z,101320.69
2022-08-17T01:54:57.155Z,101314.56
2022-08-17T01:57:45.544Z,101318.91
2022-08-17T02:00:51.760Z,101319.75
2022-08-17T02:03:38.541Z,101324.94
2022-08-17T02:06:27.978Z,101325.78
2022-08-17T02:09:16.800Z,101317.06
2022-08-17T02:12:38.278Z,101318.81
2022-08-17T02:15:12.432Z,101312.72
2022-08-17T02:17:57.881Z,101325.78
2022-08-17T02:20:43.555Z,101319.66
2022-08-17T02:23:32.022Z,101321.41
2022-08-17T02:26:23.853Z,101325.78
2022-08-17T02:29:12.180Z,101320.59
2022-08-17T02:31:58.668Z,101320.59
2022-08-17T02:34:44.230Z,101318.91
2022-08-17T02:37:31.111Z,101324.16
2022-08-17T02:40:17.336Z,101327.63
2022-08-17T02:43:21.825Z,101328.53
2022-08-17T02:46:07.251Z,101321.56
2022-08-17T02:48:52.509Z,101320.72
2022-08-17T02:51:37.929Z,101321.63
2022-08-17T02:54:41.775Z,101323.38
2022-08-17T02:57:27.503Z,101322.50
2022-08-17T03:00:23.216Z,101324.28
2022-08-17T03:03:10.986Z,101323.44
2022-08-17T03:05:56.661Z,101311.25
2022-08-17T03:08:42.034Z,101319.97
2022-08-17T03:11:27.762Z,101316.47
2022-08-17T03:14:13.502Z,101313.00
2022-08-17T03:16:59.449Z,101307.78
2022-08-17T03:19:44.982Z,101312.16
2022-08-17T03:22:37.176Z,101319.13
2022-08-17T03:25:31.207Z,101325.22
2022-08-17T03:28:17.518Z,101322.63
2022-08-17T03:31:03.205Z,101320.88
2022-08-17T03:33:48.797Z,101318.28
2022-08-17T03:36:36.031Z,101327.84
2022-08-17T03:39:21.806Z,101327.84
2022-08-17T03:42:31.348Z,101322.63
2022-08-17T03:45:43.572Z,101325.22
2022-08-17T03:48:47.318Z,101325.19
2022-08-17T03:51:51.298Z,101319.06
2022-08-17T03:54:55.932Z,101319.03
2022-08-17T03:57:41.535Z,101323.34
2022-08-17T04:00:27.863Z,101327.69
2022-08-17T04:03:14.330Z,101319.81
2022-08-17T04:06:01.014Z,101321.56
2022-08-17T04:08:46.600Z,101327.63
2022-08-17T04:11:33.425Z,101326.75
2022-08-17T04:14:19.311Z,101336.34
2022-08-17T04:17:05.803Z,101338.06
2022-08-17T04:19:52.453Z,101343.28
2022-08-17T04:22:38.222Z,101335.47
2022-08-17T04:25:24.769Z,101333.75
2022-08-17T04:28:15.978Z,101337.19
2022-08-17T04:31:01.816Z,101340.66
2022-08-17T04:33:47.281Z,101338.91
2022-08-17T04:36:32.726Z,101341.53
2022-08-17T04:39:18.040Z,101340.66
2022-08-17T04:42:09.502Z,101344.13
2022-08-17T04:44:54.883Z,101340.66
2022-08-17T04:47:40.815Z,101338.91
2022-08-17T04:50:26.344Z,101341.50
2022-08-17T04:53:13.941Z,101345.00
2022-08-17T04:55:59.394Z,101349.34
2022-08-17T04:58:50.756Z,101349.31
2022-08-17T05:01:38.982Z,101351.06
2022-08-17T05:04:34.037Z,101355.38
2022-08-17T05:07:24.015Z,101359.72
2022-08-17T05:10:10.858Z,101365.78
2022-08-17T05:13:09.048Z,101364.03
2022-08-17T05:16:04.715Z,101376.19
2022-08-17T05:18:50.869Z,101373.56
2022-08-17T05:21:36.338Z,101374.44
2022-08-17T05:24:42.850Z,101381.41
2022-08-17T05:27:32.226Z,101377.91
2022-08-17T05:30:22.164Z,101379.66
2022-08-17T05:33:17.469Z,101383.13
2022-08-17T05:36:06.113Z,101384.88
2022-08-17T05:38:51.867Z,101381.41
2022-08-17T05:41:37.278Z,101388.41
2022-08-17T05:44:22.639Z,101394.50
2022-08-17T05:47:09.907Z,101400.56
2022-08-17T05:49:55.674Z,101393.66
2022-08-17T05:52:54.300Z,101393.66
2022-08-17T05:55:53.946Z,101401.47
2022-08-17T05:58:58.640Z,101406.69
2022-08-17T06:02:09.961Z,101411.03
2022-08-17T06:05:06.363Z,101410.19
2022-08-17T06:08:10.712Z,101412.78
2022-08-17T06:11:26.656Z,101415.41
2022-08-17T06:14:35.737Z,101407.63
2022-08-17T06:17:25.180Z,101413.75
2022-08-17T06:20:14.426Z,101416.38
2022-08-17T06:23:08.551Z,101428.59
2022-08-17T06:25:59.469Z,101427.75
2022-08-17T06:28:53.822Z,101419.84
2022-08-17T06:31:40.700Z,101434.66
2022-08-17T06:34:26.369Z,101438.16
2022-08-17T06:37:31.220Z,101447.75
2022-08-17T06:41:01.727Z,101439.09
2022-08-17T06:44:42.306Z,101440.84
2022-08-17T06:47:55.094Z,101438.28
2022-08-17T06:50:49.721Z,101437.44
2022-08-17T06:53:53.344Z,101429.69
2022-08-17T06:56:53.295Z,101439.31
2022-08-17T06:59:55.643Z,101444.56
2022-08-17T07:02:52.040Z,101441.13
2022-08-17T07:05:38.695Z,101442.88
2022-08-17T07:08:43.224Z,101445.53
2022-08-17T07:11:47.705Z,101442.91
2022-08-17T07:14:52.867Z,101446.44
2022-08-17T07:17:48.043Z,101448.22
2022-08-17T07:20:35.089Z,101449.97
2022-08-17T07:23:39.652Z,101453.47
2022-08-17T07:26:25.070Z,101452.63
2022-08-17T07:29:16.457Z,101453.50
2022-08-17T07:32:02.999Z,101455.28
2022-08-17T07:35:11.211Z,101447.44
2022-08-17T07:38:25.813Z,101443.13
2022-08-17T07:41:12.261Z,101448.34
2022-08-17T07:43:57.968Z,101442.31
2022-08-17T07:47:12.502Z,101438.84
2022-08-17T07:49:58.176Z,101445.81
2022-08-17T07:52:50.716Z,101439.75
2022-08-17T07:55:41.551Z,101444.13
2022-08-17T07:58:26.844Z,101438.03
2022-08-17T08:01:15.604Z,101449.34
2022-08-17T08:04:58.972Z,101455.47
2022-08-17T08:07:50.649Z,101457.25
2022-08-17T08:10:45.273Z,101446.78
2022-08-17T08:13:32.794Z,101452.00
2022-08-17T08:16:26.025Z,101441.53
2022-08-17T08:19:20.895Z,101443.28
2022-08-17T08:22:18.847Z,101439.78
2022-08-17T08:25:07.431Z,101440.69
2022-08-17T08:28:16.027Z,101445.91
2022-08-17T08:31:16.221Z,101437.16
2022-08-17T08:34:58.817Z,101437.16
2022-08-17T08:38:15.861Z,101434.50
2022-08-17T08:41:13.569Z,101433.63
2022-08-17T08:45:00.853Z,101432.75
2022-08-17T08:47:53.901Z,101427.47
2022-08-17T08:50:52.768Z,101423.91
2022-08-17T08:53:55.566Z,101430.91
2022-08-17T08:57:11.924Z,101439.66
2022-08-17T09:00:13.381Z,101436.16
2022-08-17T09:03:04.989Z,101433.56
2022-08-17T09:05:50.383Z,101437.00
2022-08-17T09:09:30.483Z,101445.66
2022-08-17T09:12:29.375Z,101447.41
2022-08-17T09:15:25.688Z,101443.88
2022-08-17T09:19:02.576Z,101454.38
2022-08-17T09:21:48.252Z,101442.13
2022-08-17T09:24:43.910Z,101447.34
2022-08-17T09:27:38.360Z,101448.19
2022-08-17T09:30:25.115Z,101462.94
2022-08-17T09:33:14.143Z,101455.97
2022-08-17T09:36:08.402Z,101464.59
2022-08-17T09:39:13.682Z,101459.28
2022-08-17T09:42:03.241Z,101463.66
2022-08-17T09:45:21.858Z,101461.81
2022-08-17T09:48:18.042Z,101469.66
2022-08-17T09:51:13.729Z,101470.53
2022-08-17T09:54:20.917Z,101485.56
2022-08-17T09:57:31.501Z,101496.25
2022-08-17T10:00:21.559Z,101497.03
2022-08-17T10:03:26.192Z,101497.88
2022-08-17T10:06:41.542Z,101495.31
2022-08-17T10:10:03.379Z,101496.16
2022-08-17T10:13:03.194Z,101503.88
2022-08-17T10:16:18.798Z,101504.72
2022-08-17T10:19:18.731Z,101507.41
2022-08-17T10:22:34.643Z,101500.47
2022-08-17T10:25:55.018Z,101503.03
2022-08-17T10:29:03.056Z,101505.72
2022-08-17T10:31:52.041Z,101500.47
2022-08-17T10:35:10.316Z,101504.78
2022-08-17T10:38:24.369Z,101501.13
2022-08-17T10:41:40.676Z,101502.78
2022-08-17T10:44:45.815Z,101507.31
2022-08-17T10:48:07.245Z,101506.34
2022-08-17T10:50:56.085Z,101508.94
2022-08-17T10:53:41.830Z,101510.72
2022-08-17T10:56:45.091Z,101501.84
2022-08-17T10:59:36.673Z,101497.41
2022-08-17T11:02:50.603Z,101493.78
2022-08-17T11:06:19.488Z,101498.03
2022-08-17T11:09:37.295Z,101496.22
2022-08-17T11:13:01.471Z,101492.75
2022-08-17T11:16:20.482Z,101498.84
2022-08-17T11:19:34.025Z,101505.78
2022-08-17T11:22:19.529Z,101498.75
2022-08-17T11:25:18.177Z,101499.72
2022-08-17T11:28:18.104Z,101498.88
2022-08-17T11:31:37.971Z,101498.03
2022-08-17T11:34:31.097Z,101507.63
2022-08-17T11:37:19.640Z,101504.06
2022-08-17T11:40:44.649Z,101502.19
2022-08-17T11:43:55.681Z,101505.53
2022-08-17T11:47:26.709Z,101511.66
2022-08-17T11:50:46.193Z,101518.84
2022-08-17T11:53:37.870Z,101515.22
2022-08-17T11:56:41.635Z,101519.44
2022-08-17T11:59:33.483Z,101519.22
2022-08-17T12:02:35.169Z,101515.78
2022-08-17T12:05:22.080Z,101512.06
2022-08-17T12:08:12.211Z,101513.47
2022-08-17T12:12:01.578Z,101516.63
2022-08-17T12:17:55.424Z,101497.94
2022-08-17T12:20:47.163Z,101494.56
2022-08-17T12:24:06.635Z,101489.25
2022-08-17T12:27:04.497Z,101486.41
2022-08-17T12:29:50.071Z,101484.88
2022-08-17T12:32:37.030Z,101479.72
2022-08-17T12:35:35.402Z,101487.06
2022-08-17T12:38:32.646Z,101476.91
2022-08-17T12:41:45.329Z,101460.88
2022-08-17T12:44:34.535Z,101463.38
2022-08-17T12:47:23.122Z,101464.44
2022-08-17T12:50:28.253Z,101461.44
2022-08-17T12:53:20.424Z,101465.19
2022-08-17T12:56:11.982Z,101462.59
2022-08-17T12:58:58.053Z,101455.25
2022-08-17T13:01:43.856Z,101451.53
2022-08-17T13:04:29.895Z,101449.28
2022-08-17T13:07:35.744Z,101454.63
2022-08-17T13:10:34.196Z,101447.50
2022-08-17T13:13:34.981Z,101446.13
2022-08-17T13:16:24.852Z,101440.63
2022-08-17T13:19:39.715Z,101442.44
2022-08-17T13:22:29.574Z,101435.78
2022-08-17T13:25:16.829Z,101432.50
2022-08-17T13:28:02.663Z,101423.22
2022-08-17T13:30:48.213Z,101419.66
2022-08-17T13:33:43.427Z,101431.50
2022-08-17T13:36:33.711Z,101424.03
2022-08-17T13:39:25.263Z,101424.97
2022-08-17T13:42:32.161Z,101427.78
2022-08-17T13:45:35.355Z,101425.94
2022-08-17T13:48:26.937Z,101421.78
2022-08-17T13:51:17.225Z,101427.25
2022-08-17T13:54:05.731Z,101427.34
2022-08-17T13:57:02.039Z,101436.44
2022-08-17T13:59:54.600Z,101431.97
2022-08-17T14:02:41.400Z,101431.97
2022-08-17T14:05:27.917Z,101436.28
2022-08-17T14:08:15.710Z,101432.69
2022-08-17T14:11:01.722Z,101423.88
2022-08-17T14:13:47.257Z,101430.84
2022-08-17T14:16:32.870Z,101416.91
2022-08-17T14:19:19.070Z,101419.47
2022-08-17T14:22:09.269Z,101412.94
2022-08-17T14:24:54.983Z,101422.41
2022-08-17T14:27:52.373Z,101414.97
2022-08-17T14:30:41.200Z,101413.97
2022-08-17T14:33:28.632Z,101415.81
2022-08-17T14:36:14.065Z,101415.41
2022-08-17T14:38:59.562Z,101407.84
2022-08-17T14:41:45.634Z,101407.06
2022-08-17T14:44:31.383Z,101412.75
2022-08-17T14:47:17.315Z,101402.78
2022-08-17T14:50:04.711Z,101400.16
2022-08-17T14:52:56.433Z,101399.84
2022-08-17T14:55:46.936Z,101400.41
2022-08-17T14:58:33.030Z,101399.31
2022-08-17T15:01:20.636Z,101388.56
2022-08-17T15:04:07.210Z,101385.03
2022-08-17T15:06:52.880Z,101385.84
2022-08-17T15:09:39.178Z,101375.03
2022-08-17T15:12:28.658Z,101382.66
2022-08-17T15:15:17.909Z,101377.06
2022-08-17T15:18:03.994Z,101385.53
2022-08-17T15:20:50.339Z,101372.44
2022-08-17T15:23:36.095Z,101371.69
2022-08-17T15:26:26.084Z,101372.88
2022-08-17T15:29:11.740Z,101372.97
2022-08-17T15:32:00.576Z,101369.91
2022-08-17T15:34:46.709Z,101362.38
2022-08-17T15:37:32.248Z,101361.59
2022-08-17T15:40:18.109Z,101356.88
2022-08-17T15:43:06.224Z,101351.38
2022-08-17T15:46:03.011Z,101351.47
2022-08-17T15:48:51.784Z,101353.69
2022-08-17T15:51:37.755Z,101351.53
2022-08-17T15:54:23.602Z,101356.31
2022-08-17T15:57:09.384Z,101354.31
2022-08-17T15:59:58.734Z,101348.72
2022-08-17T16:03:46.253Z,101349.25
2022-08-17T16:05:50.983Z,101344.59
2022-08-17T16:08:38.415Z,101342.97
2022-08-17T16:11:26.050Z,101348.75
2022-08-17T16:14:11.842Z,101339.72
2022-08-17T16:17:00.139Z,101341.66
2022-08-17T16:19:45.802Z,101333.63
2022-08-17T16:22:39.613Z,101326.34
2022-08-17T16:25:47.207Z,101335.25
2022-08-17T16:28:36.529Z,101330.31
2022-08-17T16:31:22.549Z,101329.72
2022-08-17T16:34:17.372Z,101338.31
2022-08-17T16:37:04.543Z,101339.28
2022-08-17T16:39:49.947Z,101339.03
2022-08-17T16:42:37.699Z,101331.47
2022-08-17T16:45:26.423Z,101336.22
2022-08-17T16:48:13.235Z,101340.97
2022-08-17T16:51:03.470Z,101331.88
2022-08-17T16:53:58.680Z,101323.38
2022-08-17T16:56:44.914Z,101322.88
2022-08-17T16:59:40.962Z,101319.59
2022-08-17T17:02:33.761Z,101321.41
2022-08-17T17:05:55.106Z,101320.03
2022-08-17T17:08:52.098Z,101315.22
2022-08-17T17:11:42.568Z,101314.00
2022-08-17T17:14:37.706Z,101311.84
2022-08-17T17:17:33.973Z,101305.69
2022-08-17T17:20:29.369Z,101315.19
2022-08-17T17:23:47.204Z,101314.38
2022-08-17T17:27:00.517Z,101317.06
2022-08-17T17:30:13.731Z,101319.88
2022-08-17T17:33:06.336Z,101328.25
2022-08-17T17:35:51.753Z,101317.84
2022-08-17T17:38:52.967Z,101322.34
2022-08-17T17:42:07.794Z,101324.19
2022-08-17T17:45:07.828Z,101333.88
2022-08-17T17:47:53.450Z,101331.28
2022-08-17T17:50:49.377Z,101332.25
2022-08-17T17:53:57.533Z,101329.91
2022-08-17T17:57:07.438Z,101329.31
2022-08-17T18:00:11.198Z,101326.09
2022-08-17T18:03:29.201Z,101314.97
2022-08-17T18:06:56.301Z,101324.03
2022-08-17T18:10:01.422Z,101333.94
2022-08-17T18:12:48.464Z,101333.25
2022-08-17T18:15:51.255Z,101337.75
2022-08-17T18:18:39.069Z,101336.22
2022-08-17T18:21:32.442Z,101328.47
2022-08-17T18:24:31.361Z,101336.44
2022-08-17T18:27:24.641Z,101336.66
2022-08-17T18:30:13.239Z,101342.91
2022-08-17T18:33:23.143Z,101336.16
2022-08-17T18:36:10.300Z,101342.38
2022-08-17T18:39:34.508Z,101350.41
2022-08-17T18:42:26.999Z,101350.53
2022-08-17T18:45:13.988Z,101347.09
2022-08-17T18:47:59.633Z,101341.09
2022-08-17T18:50:45.439Z,101333.31
2022-08-17T18:53:41.439Z,101338.69
2022-08-17T18:56:33.238Z,101341.41
2022-08-17T18:59:21.850Z,101335.31
2022-08-17T19:02:20.690Z,101331.00
2022-08-17T19:05:25.564Z,101334.56
2022-08-17T19:08:31.262Z,101338.13
2022-08-17T19:11:33.749Z,101347.81
2022-08-17T19:14:20.750Z,101344.38
2022-08-17T19:17:16.875Z,101345.31
2022-08-17T19:20:10.260Z,101342.72
2022-08-17T19:23:33.378Z,101341.03
2022-08-17T19:26:55.382Z,101356.03
2022-08-17T19:29:48.374Z,101350.88
2022-08-17T19:32:35.926Z,101346.56
2022-08-17T19:35:25.205Z,101334.34
2022-08-17T19:38:49.097Z,101343.13
2022-08-17T19:41:45.673Z,101336.19
2022-08-17T19:44:57.806Z,101335.38
2022-08-17T19:47:55.145Z,101334.59
2022-08-17T19:50:56.173Z,101334.63
2022-08-17T19:54:06.318Z,101333.78
2022-08-17T19:57:02.017Z,101339.94
2022-08-17T20:00:10.651Z,101324.19
2022-08-17T20:03:16.576Z,101326.00
2022-08-17T20:06:13.189Z,101324.25
2022-08-17T20:09:10.526Z,101319.91
2022-08-17T20:12:05.150Z,101324.34
2022-08-17T20:14:57.497Z,101319.09
2022-08-17T20:17:46.444Z,101328.72
2022-08-17T20:20:54.771Z,101319.09
2022-08-17T20:23:44.175Z,101332.25
2022-08-17T20:26:39.759Z,101342.78
2022-08-17T20:29:40.396Z,101348.06
2022-08-17T20:32:29.200Z,101345.44
2022-08-17T20:35:30.597Z,101329.72
2022-08-17T20:38:39.130Z,101340.25
2022-08-17T20:41:30.400Z,101331.53
2022-08-17T20:44:33.141Z,101329.78
2022-08-17T20:47:27.199Z,101328.94
2022-08-17T20:50:25.947Z,101321.06
2022-08-17T20:53:49.414Z,101317.59
2022-08-17T20:56:43.906Z,101308.81
2022-08-17T20:59:31.484Z,101304.47
2022-08-17T21:02:22.690Z,101302.69
2022-08-17T21:05:30.160Z,101296.56
2022-08-17T21:08:18.640Z,101293.94
2022-08-17T21:11:56.737Z,101289.56
2022-08-17T21:14:44.938Z,101293.97
2022-08-17T21:17:43.856Z,101290.47
2022-08-17T21:20:42.049Z,101291.34
2022-08-17T21:23:44.323Z,101284.41
2022-08-17T21:27:01.108Z,101285.34
2022-08-17T21:30:01.831Z,101292.41
2022-08-17T21:33:16.861Z,101294.25
2022-08-17T21:36:11.875Z,101301.38
2022-08-17T21:39:06.555Z,101294.47
2022-08-17T21:41:57.007Z,101297.16
2022-08-17T21:44:49.481Z,101298.97
2022-08-17T21:47:35.465Z,101309.53
2022-08-17T21:50:25.197Z,101301.69
2022-08-17T21:53:21.895Z,101285.16
2022-08-17T21:56:08.800Z,101283.50
2022-08-17T21:58:59.627Z,101283.50
2022-08-17T22:01:53.020Z,101282.69
2022-08-17T22:04:41.747Z,101282.72
2022-08-17T22:07:43.989Z,101279.22
2022-08-17T22:10:43.066Z,101279.25
2022-08-17T22:13:30.125Z,101274.88
2022-08-17T22:16:28.820Z,101270.50
2022-08-17T22:19:15.338Z,101260.94
2022-08-17T22:22:19.856Z,101249.56
2022-08-17T22:25:19.544Z,101251.31
2022-08-17T22:28:10.915Z,101257.41
2022-08-17T22:31:03.608Z,101253.03
2022-08-17T22:34:09.691Z,101250.41
2022-08-17T22:37:26.729Z,101253.03
2022-08-17T22:40:30.574Z,101252.13
2022-08-17T22:43:21.259Z,101261.69
2022-08-17T22:46:12.578Z,101260.81
2022-08-17T22:48:59.645Z,101266.06
2022-08-17T22:51:45.463Z,101257.28
2022-08-17T22:54:49.796Z,101257.28
2022-08-17T22:57:54.960Z,101264.22
2022-08-17T23:00:43.906Z,101258.94
2022-08-17T23:03:30.139Z,101253.69
2022-08-17T23:06:15.608Z,101239.69
2022-08-17T23:09:04.139Z,101235.28
2022-08-17T23:11:53.427Z,101245.78
2022-08-17T23:14:45.470Z,101248.38
2022-08-17T23:17:37.408Z,101242.25
2022-08-17T23:20:23.272Z,101242.25
2022-08-17T23:23:11.753Z,101234.38
2022-08-17T23:25:57.278Z,101233.47
2022-08-17T23:28:43.915Z,101243.09
2022-08-17T23:31:33.075Z,101233.50
2022-08-17T23:34:19.187Z,101238.75
2022-08-17T23:37:05.737Z,101232.59
2022-08-17T23:39:51.060Z,101223.88
2022-08-17T23:42:39.850Z,101223.81
2022-08-17T23:45:29.157Z,101215.03
2022-08-17T23:48:14.582Z,101214.13
2022-08-17T23:51:20.348Z,101212.41
2022-08-17T23:54:13.463Z,101204.50
2022-08-17T23:56:59.643Z,101200.09
2022-08-17T23:59:45.962Z,101201.81
